Terminal Aerodrome Forecast
Issued by NWS Buffalo, NY

Home | Current Version | Previous Version | Text Only | Print | Product List | Glossary On
Versions: 1 2 3 4 5 6 7 8 9 10 11 12 13 14 15 16 17 18 19 20 21 22 23 24 25
000
FTUS41 KBUF 311120
TAFBUF
TAF
KBUF 311120Z 3112/0112 VRB04KT P6SM SKC
     FM311400 23008KT P6SM FEW070
     FM311800 24016G25KT P6SM SCT060
     FM010100 24011KT P6SM VCSH BKN060
      TEMPO 0103/0105 6SM -SHRA
     FM010800 24005KT P6SM BKN070=

USA.gov is the U.S. government's official web portal to all federal, state and local government web resources and services.